createdAt,value
2023-01-04T00:02:27.585Z,98386.52
2023-01-04T00:04:59.628Z,98378.81
2023-01-04T00:07:32.598Z,98385.61
2023-01-04T00:10:04.968Z,98398.55
2023-01-04T00:12:37.466Z,98405.70
2023-01-04T00:15:10.205Z,98411.63
2023-01-04T00:17:42.327Z,98416.88
2023-01-04T00:20:14.658Z,98410.59
2023-01-04T00:22:46.904Z,98423.77
2023-01-04T00:25:18.946Z,98418.70
2023-01-04T00:27:52.739Z,98419.53
2023-01-04T00:30:24.777Z,98435.86
2023-01-04T00:32:58.145Z,98450.03
2023-01-04T00:35:45.304Z,98479.49
2023-01-04T00:38:04.035Z,98490.49
2023-01-04T00:40:36.198Z,98494.66
2023-01-04T00:43:08.150Z,98513.28
2023-01-04T00:45:40.319Z,98523.69
2023-01-04T00:48:12.708Z,98535.37
2023-01-04T00:50:46.399Z,98543.95
2023-01-04T00:53:19.197Z,98554.67
2023-01-04T00:55:51.401Z,98566.42
2023-01-04T00:58:23.427Z,98584.80
2023-01-04T01:00:55.495Z,98595.48
2023-01-04T01:03:30.073Z,98608.09
2023-01-04T01:06:05.967Z,98632.30
2023-01-04T01:08:38.212Z,98608.70
2023-01-04T01:11:12.220Z,98621.08
2023-01-04T01:13:44.412Z,98637.78
2023-01-04T01:16:37.857Z,98640.67
2023-01-04T01:18:54.489Z,98639.27
2023-01-04T01:21:29.282Z,98661.84
2023-01-04T01:24:01.190Z,98663.03
2023-01-04T01:26:34.423Z,98659.80
2023-01-04T01:29:08.074Z,98672.09
2023-01-04T01:31:41.338Z,98676.35
2023-01-04T01:34:13.352Z,98691.22
2023-01-04T01:36:45.784Z,98687.73
2023-01-04T01:39:18.060Z,98696.69
2023-01-04T01:41:50.208Z,98715.77
2023-01-04T01:44:47.232Z,98726.12
2023-01-04T01:47:28.034Z,98733.14
2023-01-04T01:50:01.117Z,98730.80
2023-01-04T01:52:36.044Z,98741.00
2023-01-04T01:55:10.900Z,98732.55
2023-01-04T01:57:44.026Z,98754.79
2023-01-04T02:00:17.044Z,98771.88
2023-01-04T02:03:12.081Z,98770.22
2023-01-04T02:05:45.653Z,98764.36
2023-01-04T02:08:18.665Z,98792.11
2023-01-04T02:10:51.139Z,98839.24
2023-01-04T02:13:26.072Z,98824.91
2023-01-04T02:16:07.072Z,98820.64
2023-01-04T02:18:47.613Z,98847.28
2023-01-04T02:21:22.520Z,98852.55
2023-01-04T02:24:16.795Z,98857.73
2023-01-04T02:27:03.387Z,98864.61
2023-01-04T02:29:38.302Z,98851.52
2023-01-04T02:32:16.016Z,98858.49
2023-01-04T02:34:56.452Z,98875.84
2023-01-04T02:37:51.632Z,98886.13
2023-01-04T02:40:48.892Z,98903.15
2023-01-04T02:43:55.988Z,98907.48
2023-01-04T02:46:33.683Z,98912.89
2023-01-04T02:49:23.391Z,98905.19
2023-01-04T02:51:55.689Z,98921.55
2023-01-04T02:54:32.328Z,98934.34
2023-01-04T02:57:25.445Z,98931.98
2023-01-04T03:00:15.053Z,98939.80
2023-01-04T03:03:39.567Z,98960.30
2023-01-04T03:06:20.151Z,98951.71
2023-01-04T03:09:00.890Z,98971.41
2023-01-04T03:12:08.092Z,98984.36
2023-01-04T03:14:43.042Z,98982.70
2023-01-04T03:17:18.301Z,98984.48
2023-01-04T03:19:52.146Z,99000.00
2023-01-04T03:22:47.548Z,99000.77
2023-01-04T03:25:40.075Z,99009.45
2023-01-04T03:28:32.629Z,99026.55
2023-01-04T03:31:31.024Z,99048.85
2023-01-04T03:34:20.966Z,99012.80
2023-01-04T03:36:58.664Z,99035.05
2023-01-04T03:40:12.217Z,99043.61
2023-01-04T03:43:16.238Z,99058.27
2023-01-04T03:46:09.005Z,99049.80
2023-01-04T03:48:55.695Z,99079.03
2023-01-04T03:51:33.291Z,99071.36
2023-01-04T03:54:11.976Z,99074.82
2023-01-04T03:56:46.257Z,99079.17
2023-01-04T03:59:18.187Z,99082.55
2023-01-04T04:01:50.629Z,99096.13
2023-01-04T04:04:40.294Z,99095.25
2023-01-04T04:07:30.549Z,99099.65
2023-01-04T04:10:02.679Z,99105.67
2023-01-04T04:12:34.617Z,99099.52
2023-01-04T04:15:07.481Z,99116.67
2023-01-04T04:17:39.535Z,99117.50
2023-01-04T04:20:13.352Z,99120.97
2023-01-04T04:22:45.581Z,99126.09
2023-01-04T04:25:17.613Z,99128.67
2023-01-04T04:27:49.820Z,99142.28
2023-01-04T04:30:22.389Z,99159.56
2023-01-04T04:32:54.556Z,99151.15
2023-01-04T04:35:26.577Z,99163.09
2023-01-04T04:37:58.740Z,99159.63
2023-01-04T04:40:48.470Z,99169.11
2023-01-04T04:43:20.556Z,99169.92
2023-01-04T04:45:52.570Z,99214.52
2023-01-04T04:48:24.551Z,99171.61
2023-01-04T04:50:56.551Z,99199.19
2023-01-04T04:53:28.522Z,99192.44
2023-01-04T04:56:00.596Z,99214.79
2023-01-04T04:58:32.593Z,99215.78
2023-01-04T05:01:05.261Z,99218.42
2023-01-04T05:03:37.935Z,99219.28
2023-01-04T05:06:10.160Z,99228.70
2023-01-04T05:08:42.255Z,99219.27
2023-01-04T05:11:14.670Z,99226.01
2023-01-04T05:13:46.649Z,99240.69
2023-01-04T05:16:18.730Z,99247.70
2023-01-04T05:18:50.660Z,99261.44
2023-01-04T05:21:22.662Z,99263.27
2023-01-04T05:23:54.673Z,99269.33
2023-01-04T05:26:26.665Z,99262.56
2023-01-04T05:28:58.697Z,99262.59
2023-01-04T05:31:31.509Z,99269.45
2023-01-04T05:34:03.872Z,99261.86
2023-01-04T05:36:36.084Z,99275.55
2023-01-04T05:39:08.424Z,99270.47
2023-01-04T05:41:57.957Z,99291.00
2023-01-04T05:44:29.873Z,99307.30
2023-01-04T05:47:01.868Z,99302.92
2023-01-04T05:49:33.849Z,99307.34
2023-01-04T05:52:06.032Z,99321.98
2023-01-04T05:54:37.943Z,99317.77
2023-01-04T05:57:10.498Z,99329.84
2023-01-04T05:59:42.786Z,99332.42
2023-01-04T06:02:20.201Z,99336.66
2023-01-04T06:04:58.524Z,99356.27
2023-01-04T06:07:26.969Z,99348.53
2023-01-04T06:09:59.845Z,99350.31
2023-01-04T06:12:32.538Z,99340.85
2023-01-04T06:15:05.058Z,99351.16
2023-01-04T06:17:38.253Z,99367.45
2023-01-04T06:20:11.522Z,99348.62
2023-01-04T06:22:43.844Z,99352.00
2023-01-04T06:25:16.068Z,99363.10
2023-01-04T06:27:48.065Z,99364.74
2023-01-04T06:30:20.187Z,99375.98
2023-01-04T06:32:52.714Z,99376.86
2023-01-04T06:35:24.902Z,99380.30
2023-01-04T06:37:57.131Z,99384.70
2023-01-04T06:40:29.153Z,99384.70
2023-01-04T06:43:01.261Z,99395.80
2023-01-04T06:45:33.213Z,99401.82
2023-01-04T06:48:09.103Z,99398.35
2023-01-04T06:50:39.192Z,99411.27
2023-01-04T06:53:11.394Z,99413.02
2023-01-04T06:55:45.309Z,99418.94
2023-01-04T06:58:17.319Z,99415.53
2023-01-04T07:00:50.051Z,99427.58
2023-01-04T07:03:22.825Z,99427.63
2023-01-04T07:05:54.897Z,99440.33
2023-01-04T07:08:27.235Z,99433.38
2023-01-04T07:10:59.365Z,99436.11
2023-01-04T07:13:31.431Z,99472.21
2023-01-04T07:16:03.565Z,99460.20
2023-01-04T07:18:35.613Z,99450.00
2023-01-04T07:21:07.840Z,99455.16
2023-01-04T07:23:39.842Z,99459.38
2023-01-04T07:26:11.825Z,99463.70
2023-01-04T07:29:01.616Z,99467.13
2023-01-04T07:31:34.184Z,99477.34
2023-01-04T07:34:06.314Z,99490.93
2023-01-04T07:36:38.324Z,99488.48
2023-01-04T07:39:12.751Z,99507.31
2023-01-04T07:41:45.639Z,99501.37
2023-01-04T07:44:18.778Z,99499.73
2023-01-04T07:46:51.320Z,99495.36
2023-01-04T07:49:23.399Z,99505.61
2023-01-04T07:51:55.309Z,99511.72
2023-01-04T07:54:27.463Z,99517.75
2023-01-04T07:56:59.989Z,99509.16
2023-01-04T07:59:32.342Z,99519.40
2023-01-04T08:02:04.715Z,99518.58
2023-01-04T08:04:37.479Z,99521.11
2023-01-04T08:07:09.948Z,99525.38
2023-01-04T08:09:42.128Z,99535.00
2023-01-04T08:12:14.097Z,99528.19
2023-01-04T08:14:46.285Z,99535.95
2023-01-04T08:17:18.755Z,99534.27
2023-01-04T08:19:50.734Z,99552.29
2023-01-04T08:22:22.730Z,99552.27
2023-01-04T08:24:54.930Z,99554.96
2023-01-04T08:27:27.686Z,99554.02
2023-01-04T08:30:00.156Z,99554.98
2023-01-04T08:32:33.323Z,99550.72
2023-01-04T08:35:06.061Z,99562.76
2023-01-04T08:37:38.044Z,99567.85
2023-01-04T08:40:11.219Z,99569.61
2023-01-04T08:42:44.405Z,99557.55
2023-01-04T08:45:17.008Z,99560.11
2023-01-04T08:47:49.038Z,99563.31
2023-01-04T08:50:21.903Z,99564.36
2023-01-04T08:52:54.030Z,99558.33
2023-01-04T08:55:26.047Z,99561.77
2023-01-04T08:57:58.207Z,99567.73
2023-01-04T09:00:30.486Z,99557.38
2023-01-04T09:03:03.278Z,99570.26
2023-01-04T09:05:35.325Z,99569.30
2023-01-04T09:08:07.601Z,99559.09
2023-01-04T09:10:40.825Z,99567.72
2023-01-04T09:13:12.899Z,99563.47
2023-01-04T09:15:45.668Z,99556.59
2023-01-04T09:18:33.570Z,99563.36
2023-01-04T09:20:51.530Z,99569.34
2023-01-04T09:23:24.223Z,99556.50
2023-01-04T09:25:56.781Z,99564.24
2023-01-04T09:28:28.878Z,99569.34
2023-01-04T09:31:02.857Z,99560.77
2023-01-04T09:34:04.007Z,99562.44
2023-01-04T09:36:10.178Z,99569.27
2023-01-04T09:38:42.804Z,99562.20
2023-01-04T09:41:23.510Z,99544.27
2023-01-04T09:44:04.809Z,99556.25
2023-01-04T09:46:45.629Z,99557.95
2023-01-04T09:49:35.773Z,99564.80
2023-01-04T09:52:23.191Z,99562.20
2023-01-04T09:55:38.138Z,99545.84
2023-01-04T09:57:46.956Z,99545.78
2023-01-04T10:00:24.274Z,99551.70
2023-01-04T10:03:08.344Z,99548.26
2023-01-04T10:05:42.562Z,99551.71
2023-01-04T10:08:18.437Z,99555.95
2023-01-04T10:11:05.075Z,99558.24
2023-01-04T10:13:55.126Z,99548.02
2023-01-04T10:17:12.605Z,99549.91
2023-01-04T10:22:52.692Z,99555.89
2023-01-04T10:25:33.429Z,99545.66
2023-01-04T10:28:17.146Z,99538.88
2023-01-04T10:31:39.514Z,99536.30
2023-01-04T10:33:57.448Z,99548.26
2023-01-04T10:36:34.657Z,99538.88
2023-01-04T10:39:10.242Z,99545.69
2023-01-04T10:41:45.074Z,99537.98
2023-01-04T10:44:41.873Z,99538.86
2023-01-04T10:47:19.624Z,99529.47
2023-01-04T10:50:00.868Z,99531.23
2023-01-04T10:52:36.165Z,99532.03
2023-01-04T10:55:20.158Z,99523.41
2023-01-04T10:57:55.175Z,99526.84
2023-01-04T11:00:33.217Z,99528.52
2023-01-04T11:03:32.362Z,99527.63
2023-01-04T11:06:10.040Z,99527.59
2023-01-04T11:08:54.392Z,99524.07
2023-01-04T11:11:35.353Z,99523.22
2023-01-04T11:14:07.811Z,99519.72
2023-01-04T11:16:43.152Z,99526.44
2023-01-04T11:19:15.994Z,99526.39
2023-01-04T11:22:16.384Z,99528.92
2023-01-04T11:25:33.163Z,99541.02
2023-01-04T11:27:30.840Z,99539.38
2023-01-04T11:30:08.962Z,99546.36
2023-01-04T11:32:44.411Z,99545.41
2023-01-04T11:35:16.423Z,99546.30
2023-01-04T11:37:48.537Z,99557.47
2023-01-04T11:40:23.894Z,99553.45
2023-01-04T11:43:13.779Z,99555.22
2023-01-04T11:46:03.987Z,99548.41
2023-01-04T11:48:45.100Z,99555.27
2023-01-04T11:51:31.971Z,99550.31
2023-01-04T11:54:15.884Z,99558.98
2023-01-04T11:57:11.852Z,99550.48
2023-01-04T11:59:40.920Z,99547.09
2023-01-04T12:05:00.844Z,99556.53
2023-01-04T12:07:36.945Z,99553.94
2023-01-04T12:10:25.208Z,99557.30
2023-01-04T12:12:59.384Z,99562.36
2023-01-04T12:15:34.774Z,99552.17
2023-01-04T12:18:09.382Z,99561.53
2023-01-04T12:20:41.646Z,99559.05
2023-01-04T12:23:14.800Z,99562.48
2023-01-04T12:25:53.039Z,99554.75
2023-01-04T12:28:36.770Z,99554.63
2023-01-04T12:31:23.959Z,99561.56
2023-01-04T12:33:58.265Z,99553.91
2023-01-04T12:36:43.279Z,99546.23
2023-01-04T12:39:18.012Z,99547.03
2023-01-04T12:42:01.949Z,99554.72
2023-01-04T12:44:50.384Z,99558.10
2023-01-04T12:47:48.731Z,99554.69
2023-01-04T12:50:31.317Z,99559.78
2023-01-04T12:55:44.344Z,99554.34
2023-01-04T12:59:14.916Z,99548.50
2023-01-04T13:01:11.562Z,99545.14
2023-01-04T13:03:46.491Z,99553.73
2023-01-04T13:06:21.406Z,99557.95
2023-01-04T13:08:54.243Z,99550.31
2023-01-04T13:11:52.209Z,99569.91
2023-01-04T13:14:33.092Z,99558.82
2023-01-04T13:17:20.567Z,99560.60
2023-01-04T13:19:53.092Z,99554.59
2023-01-04T13:22:33.761Z,99552.83
2023-01-04T13:25:09.084Z,99548.50
2023-01-04T13:27:42.795Z,99541.67
2023-01-04T13:30:31.892Z,99545.95
2023-01-04T13:33:26.704Z,99517.77
2023-01-04T13:36:07.046Z,99548.50
2023-01-04T13:38:43.406Z,99548.53
2023-01-04T13:41:21.540Z,99554.57
2023-01-04T13:43:59.306Z,99542.63
2023-01-04T13:46:32.467Z,99540.03
2023-01-04T13:49:05.304Z,99537.50
2023-01-04T13:51:38.418Z,99544.33
2023-01-04T13:54:22.834Z,99539.14
2023-01-04T13:56:56.057Z,99552.03
2023-01-04T13:59:27.959Z,99552.56
2023-01-04T14:02:00.080Z,99548.55
2023-01-04T14:04:34.211Z,99547.77
2023-01-04T14:07:05.681Z,99545.30
2023-01-04T14:09:53.886Z,99540.78
2023-01-04T14:12:28.421Z,99536.54
2023-01-04T14:15:26.192Z,99537.47
2023-01-04T14:17:59.241Z,99536.61
2023-01-04T14:20:34.254Z,99523.71
2023-01-04T14:23:06.701Z,99522.80
2023-01-04T14:25:43.463Z,99521.06
2023-01-04T14:28:29.747Z,99515.81
2023-01-04T14:31:06.517Z,99520.10
2023-01-04T14:33:44.720Z,99515.80
2023-01-04T14:36:32.566Z,99501.20
2023-01-04T14:39:13.700Z,99501.16
2023-01-04T14:41:55.186Z,99496.86
2023-01-04T14:44:31.249Z,99490.77
2023-01-04T14:47:07.931Z,99488.95
2023-01-04T14:49:40.128Z,99486.22
2023-01-04T14:52:15.621Z,99480.38
2023-01-04T14:54:47.653Z,99472.66
2023-01-04T14:57:21.423Z,99477.78
2023-01-04T14:59:53.483Z,99470.03
2023-01-04T15:02:27.375Z,99462.28
2023-01-04T15:04:59.002Z,99472.52
2023-01-04T15:07:39.461Z,99469.69
2023-01-04T15:10:26.575Z,99462.89
2023-01-04T15:13:00.123Z,99460.20
2023-01-04T15:15:34.368Z,99449.05
2023-01-04T15:18:06.464Z,99447.25
2023-01-04T15:20:40.624Z,99446.35
2023-01-04T15:23:12.658Z,99448.06
2023-01-04T15:25:44.955Z,99443.81
2023-01-04T15:28:17.200Z,99430.92
2023-01-04T15:30:49.236Z,99425.77
2023-01-04T15:33:21.767Z,99413.72
2023-01-04T15:36:05.581Z,99416.31
2023-01-04T15:38:37.465Z,99418.86
2023-01-04T15:41:13.871Z,99415.35
2023-01-04T15:43:45.769Z,99403.42
2023-01-04T15:46:17.964Z,99405.21
2023-01-04T15:48:49.997Z,99391.52
2023-01-04T15:51:22.201Z,99394.98
2023-01-04T15:53:54.704Z,99393.28
2023-01-04T15:56:27.018Z,99387.27
2023-01-04T15:58:59.237Z,99390.77
2023-01-04T16:01:31.613Z,99383.97
2023-01-04T16:04:05.401Z,99385.73
2023-01-04T16:06:37.321Z,99379.72
2023-01-04T16:09:09.535Z,99372.89
2023-01-04T16:12:02.423Z,99362.66
2023-01-04T16:14:34.396Z,99365.25
2023-01-04T16:17:06.728Z,99360.94
2023-01-04T16:19:38.628Z,99359.25
2023-01-04T16:22:11.214Z,99348.13
2023-01-04T16:27:17.253Z,99336.09
2023-01-04T16:29:53.475Z,99345.53
2023-01-04T16:32:25.465Z,99335.25
2023-01-04T16:34:57.407Z,99330.07
2023-01-04T16:37:30.838Z,99320.59
2023-01-04T16:40:07.844Z,99317.13
2023-01-04T16:42:38.140Z,99321.42
2023-01-04T16:45:11.040Z,99317.97
2023-01-04T16:47:44.358Z,99302.49
2023-01-04T16:50:16.801Z,99305.88
2023-01-04T16:52:48.920Z,99296.43
2023-01-04T16:55:23.983Z,99293.83
2023-01-04T16:57:54.843Z,99292.91
2023-01-04T17:00:27.231Z,99295.41
2023-01-04T17:02:59.307Z,99291.95
2023-01-04T17:05:31.460Z,99290.25
2023-01-04T17:08:03.726Z,99283.41
2023-01-04T17:10:37.558Z,99275.69
2023-01-04T17:13:09.595Z,99267.11
2023-01-04T17:15:43.376Z,99267.91
2023-01-04T17:18:17.188Z,99249.89
2023-01-04T17:20:52.151Z,99250.78
2023-01-04T17:23:26.319Z,99241.25
2023-01-04T17:26:03.938Z,99245.56
2023-01-04T17:28:36.785Z,99240.33
2023-01-04T17:31:11.323Z,99225.74
2023-01-04T17:33:43.551Z,99224.83
2023-01-04T17:36:17.845Z,99234.23
2023-01-04T17:38:50.414Z,99217.05
2023-01-04T17:41:24.796Z,99215.33
2023-01-04T17:44:02.036Z,99219.60
2023-01-04T17:46:37.207Z,99208.36
2023-01-04T17:49:31.870Z,99200.52
2023-01-04T17:51:46.441Z,99192.75
2023-01-04T17:54:18.833Z,99198.77
2023-01-04T17:56:50.841Z,99191.92
2023-01-04T17:59:23.017Z,99184.10
2023-01-04T18:01:55.176Z,99179.83
2023-01-04T18:04:27.282Z,99180.61
2023-01-04T18:06:59.652Z,99180.56
2023-01-04T18:09:31.665Z,99167.69
2023-01-04T18:12:03.930Z,99178.84
2023-01-04T18:14:35.973Z,99169.41
2023-01-04T18:17:08.175Z,99168.47
2023-01-04T18:19:44.562Z,99171.85
2023-01-04T18:22:14.148Z,99165.80
2023-01-04T18:24:46.183Z,99174.38
2023-01-04T18:27:26.442Z,99159.73
2023-01-04T18:29:52.435Z,99163.89
2023-01-04T18:32:26.234Z,99156.09
2023-01-04T18:34:58.451Z,99151.83
2023-01-04T18:37:30.496Z,99152.66
2023-01-04T18:40:05.963Z,99152.59
2023-01-04T18:42:38.355Z,99148.36
2023-01-04T18:45:10.442Z,99145.80
2023-01-04T18:47:42.555Z,99153.41
2023-01-04T18:50:15.279Z,99136.26
2023-01-04T18:52:47.202Z,99137.84
2023-01-04T18:55:19.407Z,99138.48
2023-01-04T18:57:51.398Z,99134.39
2023-01-04T19:00:25.034Z,99131.58
2023-01-04T19:02:58.496Z,99129.14
2023-01-04T19:05:30.541Z,99135.02
2023-01-04T19:08:02.884Z,99137.75
2023-01-04T19:10:35.726Z,99124.84
2023-01-04T19:13:18.984Z,99122.17
2023-01-04T19:15:50.929Z,99122.11
2023-01-04T19:18:22.940Z,99127.73
2023-01-04T19:20:55.631Z,99121.13
2023-01-04T19:23:27.821Z,99102.59
2023-01-04T19:25:59.892Z,99109.67
2023-01-04T19:28:32.003Z,99111.93
2023-01-04T19:31:09.174Z,99097.72
2023-01-04T19:33:41.682Z,99098.64
2023-01-04T19:36:15.515Z,99095.27
2023-01-04T19:38:47.425Z,99096.83
2023-01-04T19:41:29.146Z,99102.94
2023-01-04T19:43:56.881Z,99090.90
2023-01-04T19:46:28.808Z,99095.17
2023-01-04T19:49:00.832Z,99082.27
2023-01-04T19:51:33.026Z,99084.49
2023-01-04T19:54:04.957Z,99083.83
2023-01-04T19:56:36.968Z,99076.84
2023-01-04T19:59:09.171Z,99079.52
2023-01-04T20:01:41.264Z,99085.52
2023-01-04T20:04:14.124Z,99079.49
2023-01-04T20:06:46.084Z,99085.35
2023-01-04T20:09:19.707Z,99073.30
2023-01-04T20:11:51.675Z,99060.98
2023-01-04T20:14:23.676Z,99064.70
2023-01-04T20:16:56.069Z,99075.95
2023-01-04T20:19:28.028Z,99067.28
2023-01-04T20:21:59.996Z,99071.68
2023-01-04T20:24:31.787Z,99065.63
2023-01-04T20:27:03.656Z,99075.95
2023-01-04T20:29:35.704Z,99072.48
2023-01-04T20:32:07.787Z,99064.77
2023-01-04T20:34:39.711Z,99064.77
2023-01-04T20:37:11.778Z,99063.37
2023-01-04T20:39:43.888Z,99060.30
2023-01-04T20:42:29.627Z,99051.62
2023-01-04T20:45:01.557Z,99050.14
2023-01-04T20:47:33.452Z,99042.26
2023-01-04T20:50:05.610Z,99043.16
2023-01-04T20:52:38.109Z,99038.88
2023-01-04T20:55:15.507Z,99040.70
2023-01-04T20:57:43.815Z,99049.34
2023-01-04T21:00:16.404Z,99045.04
2023-01-04T21:02:48.648Z,99041.53
2023-01-04T21:05:20.709Z,99039.02
2023-01-04T21:07:52.575Z,99046.70
2023-01-04T21:10:24.890Z,99043.25
2023-01-04T21:12:56.883Z,99035.41
2023-01-04T21:15:29.020Z,99031.20
2023-01-04T21:18:00.971Z,99031.86
2023-01-04T21:20:33.050Z,99020.02
2023-01-04T21:23:05.016Z,99033.78
2023-01-04T21:25:41.063Z,99014.00
2023-01-04T21:28:14.439Z,99021.57
2023-01-04T21:30:47.593Z,99016.06
2023-01-04T21:33:19.599Z,99014.38
2023-01-04T21:35:51.502Z,99011.14
2023-01-04T21:38:23.957Z,99020.84
2023-01-04T21:40:55.842Z,99012.24
2023-01-04T21:43:27.756Z,99011.45
2023-01-04T21:46:01.229Z,98999.41
2023-01-04T21:48:33.289Z,99005.36
2023-01-04T21:51:06.858Z,99005.33
2023-01-04T21:53:40.264Z,99005.22
2023-01-04T21:56:15.074Z,99004.26
2023-01-04T21:58:47.302Z,98999.98
2023-01-04T22:01:22.453Z,98996.52
2023-01-04T22:03:54.543Z,98982.09
2023-01-04T22:06:26.678Z,98997.65
2023-01-04T22:08:58.807Z,98992.31
2023-01-04T22:11:30.978Z,98992.56
2023-01-04T22:14:03.297Z,98989.94
2023-01-04T22:16:35.418Z,98982.41
2023-01-04T22:19:07.768Z,98991.90
2023-01-04T22:21:40.253Z,98977.24
2023-01-04T22:24:15.970Z,98972.70
2023-01-04T22:26:49.477Z,98972.84
2023-01-04T22:29:22.529Z,98966.92
2023-01-04T22:31:54.625Z,98974.55
2023-01-04T22:34:28.139Z,98972.08
2023-01-04T22:37:00.172Z,98979.00
2023-01-04T22:39:32.220Z,98968.60
2023-01-04T22:42:04.241Z,98966.81
2023-01-04T22:44:36.743Z,98977.34
2023-01-04T22:47:08.641Z,98961.76
2023-01-04T22:49:40.516Z,98965.30
2023-01-04T22:52:12.781Z,98962.79
2023-01-04T22:54:44.722Z,98966.30
2023-01-04T22:57:16.698Z,98964.34
2023-01-04T22:59:48.639Z,98953.55
2023-01-04T23:02:20.523Z,98959.17
2023-01-04T23:04:52.436Z,98960.14
2023-01-04T23:07:24.534Z,98960.14
2023-01-04T23:09:56.549Z,98965.92
2023-01-04T23:12:28.568Z,98952.62
2023-01-04T23:15:00.427Z,98949.81
2023-01-04T23:17:33.253Z,98941.35
2023-01-04T23:20:10.264Z,98944.83
2023-01-04T23:22:38.757Z,98947.95
2023-01-04T23:25:10.485Z,98946.02
2023-01-04T23:27:47.611Z,98947.34
2023-01-04T23:30:19.503Z,98945.27
2023-01-04T23:32:51.426Z,98951.05
2023-01-04T23:35:23.646Z,98945.86
2023-01-04T23:37:55.898Z,98952.05
2023-01-04T23:40:27.821Z,98944.45
2023-01-04T23:42:59.832Z,98947.13
2023-01-04T23:45:31.778Z,98942.76
2023-01-04T23:48:03.673Z,98948.81
2023-01-04T23:50:35.613Z,98948.64
2023-01-04T23:53:07.559Z,98950.06
2023-01-04T23:55:39.635Z,98945.34
2023-01-04T23:58:11.638Z,98951.88
